Time;durP1;ratioP1;P1;durP2;ratioP2;P2;SDS_P1;SDS_P2;PMS_P1;PMS_P2;Temp;Humidity;BMP_temperature;BMP_pressure;BME280_temperature;BME280_humidity;BME280_pressure;Samples;Min_cycle;Max_cycle;Signal;HPM_P1;HPM_P2
2023/07/28 00:00:38;;;;;;;11.60;10.40;;;;;;;17.46;100.00;100485.44;6187836;23;20307;-78
2023/07/28 00:03:04;;;;;;;13.43;10.45;;;;;;;17.44;100.00;100494.00;6189219;23;20063;-78
2023/07/28 00:05:31;;;;;;;15.10;11.43;;;;;;;17.45;100.00;100486.66;6188546;23;20022;-79
2023/07/28 00:07:58;;;;;;;12.65;10.77;;;;;;;17.45;100.00;100495.47;6189370;23;20021;-79
2023/07/28 00:10:24;;;;;;;16.15;10.80;;;;;;;17.46;100.00;100496.22;6188040;23;20014;-79
2023/07/28 00:12:51;;;;;;;13.38;11.10;;;;;;;17.46;100.00;100491.56;6188125;23;20017;-79
2023/07/28 00:15:18;;;;;;;13.52;10.93;;;;;;;17.46;100.00;100485.44;6188056;23;20020;-79
2023/07/28 00:17:45;;;;;;;17.60;11.50;;;;;;;17.45;100.00;100482.03;6188101;23;20081;-79
2023/07/28 00:20:11;;;;;;;14.75;10.23;;;;;;;17.45;100.00;100482.03;6188956;23;20021;-79
2023/07/28 00:22:38;;;;;;;14.15;11.02;;;;;;;17.46;100.00;100483.50;6161514;23;20023;-79
2023/07/28 00:25:05;;;;;;;12.45;9.38;;;;;;;17.45;100.00;100479.31;6188777;23;20100;-79
2023/07/28 00:27:31;;;;;;;12.65;9.60;;;;;;;17.45;100.00;100478.59;6187709;23;20025;-79
2023/07/28 00:29:58;;;;;;;11.50;9.73;;;;;;;17.46;100.00;100480.06;6157247;23;20084;-79
2023/07/28 00:32:24;;;;;;;10.80;9.68;;;;;;;17.44;100.00;100475.16;6156632;23;20018;-79
2023/07/28 00:34:51;;;;;;;13.45;9.18;;;;;;;17.45;100.00;100470.53;6159229;23;20020;-78
2023/07/28 00:37:18;;;;;;;10.48;9.00;;;;;;;17.44;100.00;100472.47;6158773;23;20100;-78
2023/07/28 00:39:45;;;;;;;12.50;9.57;;;;;;;17.45;100.00;100481.28;6159297;23;20021;-78
2023/07/28 00:42:11;;;;;;;12.63;8.45;;;;;;;17.46;100.00;100472.00;6158545;23;20018;-78
2023/07/28 00:44:38;;;;;;;9.23;8.05;;;;;;;17.46;100.00;100472.00;6158378;23;20743;-78
2023/07/28 00:47:05;;;;;;;16.27;8.38;;;;;;;17.45;100.00;100475.91;6157606;23;20445;-78
2023/07/28 00:49:31;;;;;;;12.35;8.07;;;;;;;17.45;100.00;100473.22;6158330;23;20018;-78
2023/07/28 00:51:59;;;;;;;11.13;7.22;;;;;;;17.44;100.00;100483.25;6159140;23;20018;-78
2023/07/28 00:54:25;;;;;;;11.50;7.97;;;;;;;17.43;100.00;100468.31;6158686;23;20422;-78
2023/07/28 00:56:52;;;;;;;11.02;7.80;;;;;;;17.43;100.00;100472.97;6156784;23;20164;-78
2023/07/28 00:59:19;;;;;;;11.82;8.20;;;;;;;17.44;100.00;100477.13;6156831;23;20474;-79
2023/07/28 01:01:45;;;;;;;16.58;8.38;;;;;;;17.43;100.00;100472.97;6132804;23;20029;-79
2023/07/28 01:04:13;;;;;;;15.77;7.25;;;;;;;17.42;100.00;100472.25;6157214;23;20329;-79
2023/07/28 01:06:52;;;;;;;20.30;8.27;;;;;;;17.44;100.00;100469.06;6158474;23;20040;-80
2023/07/28 01:09:24;;;;;;;11.35;7.95;;;;;;;17.43;100.00;100481.78;6157133;23;20456;-79
2023/07/28 01:11:55;;;;;;;13.27;7.85;;;;;;;17.43;100.00;100475.66;6157103;23;20021;-79
2023/07/28 01:14:22;;;;;;;9.98;7.45;;;;;;;17.40;100.00;100480.06;6156722;23;20022;-79
2023/07/28 01:16:49;;;;;;;12.75;7.80;;;;;;;17.42;100.00;100490.34;6158945;23;20463;-79
2023/07/28 01:19:18;;;;;;;13.23;7.40;;;;;;;17.41;100.00;100489.59;6159080;23;20088;-79
2023/07/28 01:21:53;;;;;;;14.55;7.70;;;;;;;17.41;100.00;100481.53;6159216;23;20065;-79
2023/07/28 01:24:28;;;;;;;17.90;7.82;;;;;;;17.41;100.00;100478.13;6158480;23;20025;-79
2023/07/28 01:26:55;;;;;;;13.93;7.80;;;;;;;17.41;100.00;100483.50;6156587;23;20022;-79
2023/07/28 01:29:22;;;;;;;12.25;6.75;;;;;;;17.41;100.00;100494.25;6156434;23;20443;-79
2023/07/28 01:31:49;;;;;;;12.23;7.57;;;;;;;17.41;100.00;100494.25;6157035;23;20356;-79
2023/07/28 01:34:15;;;;;;;12.63;7.70;;;;;;;17.40;100.00;100496.22;6157187;23;20022;-79
2023/07/28 01:36:43;;;;;;;16.10;7.78;;;;;;;17.39;100.00;100499.41;6158103;23;20029;-79
2023/07/28 01:39:09;;;;;;;16.60;7.60;;;;;;;17.39;100.00;100499.41;6133776;23;20053;-79
2023/07/28 01:41:36;;;;;;;16.63;7.88;;;;;;;17.38;100.00;100497.94;6157003;23;20028;-79
2023/07/28 01:44:03;;;;;;;14.63;7.45;;;;;;;17.38;100.00;100504.03;6159871;23;20494;-79
2023/07/28 01:46:29;;;;;;;13.98;8.02;;;;;;;17.39;100.00;100494.00;6157644;23;20368;-79
2023/07/28 01:48:56;;;;;;;15.77;8.10;;;;;;;17.40;100.00;100496.22;6158592;23;20018;-80
2023/07/28 01:51:23;;;;;;;20.52;7.85;;;;;;;17.41;100.00;100495.00;6159498;23;20014;-79
2023/07/28 01:53:49;;;;;;;14.07;7.55;;;;;;;17.42;100.00;100498.41;6159799;23;20014;-79
2023/07/28 01:56:16;;;;;;;14.50;8.35;;;;;;;17.41;100.00;100492.31;6159326;23;20022;-79
2023/07/28 01:58:42;;;;;;;14.13;8.35;;;;;;;17.40;100.00;100488.16;6133185;23;20464;-79
2023/07/28 02:01:09;;;;;;;16.00;8.15;;;;;;;17.41;100.00;100488.88;6158438;23;20109;-79
2023/07/28 02:03:36;;;;;;;16.25;8.60;;;;;;;17.41;100.00;100492.31;6157417;23;20029;-79
2023/07/28 02:06:02;;;;;;;15.73;8.65;;;;;;;17.41;100.00;100489.59;6160302;23;20057;-79
2023/07/28 02:08:29;;;;;;;18.20;8.68;;;;;;;17.42;100.00;100496.47;6159322;23;20014;-79
2023/07/28 02:10:55;;;;;;;14.32;8.25;;;;;;;17.42;100.00;100493.75;6133237;23;20022;-79
2023/07/28 02:13:22;;;;;;;12.50;8.38;;;;;;;17.43;100.00;100497.19;6159476;23;20170;-79
2023/07/28 02:15:49;;;;;;;14.05;8.52;;;;;;;17.42;100.00;100507.22;6160041;23;20022;-79
2023/07/28 02:18:15;;;;;;;12.63;7.97;;;;;;;17.43;100.00;100503.31;6159820;23;20475;-79
2023/07/28 02:20:42;;;;;;;14.88;8.50;;;;;;;17.41;100.00;100496.94;6157478;23;20448;-79
2023/07/28 02:23:08;;;;;;;15.57;9.10;;;;;;;17.40;100.00;100493.53;6159927;23;20018;-79
2023/07/28 02:25:35;;;;;;;14.05;9.18;;;;;;;17.40;100.00;100490.09;6132361;23;20488;-79
2023/07/28 02:28:02;;;;;;;20.90;9.85;;;;;;;17.40;100.00;100484.72;6159918;23;20423;-79
2023/07/28 02:30:29;;;;;;;20.08;9.98;;;;;;;17.39;100.00;100494.75;6157394;23;20033;-79
2023/07/28 02:32:55;;;;;;;18.75;9.82;;;;;;;17.40;100.00;100496.22;6158374;23;20097;-79
2023/07/28 02:35:22;;;;;;;18.13;10.43;;;;;;;17.40;100.00;100493.53;6159080;23;20024;-79
2023/07/28 02:37:48;;;;;;;19.55;11.15;;;;;;;17.40;100.00;100488.16;6160173;23;20022;-79
2023/07/28 02:40:15;;;;;;;27.10;10.77;;;;;;;17.41;100.00;100492.31;6157610;23;20053;-79
2023/07/28 02:42:42;;;;;;;21.23;12.13;;;;;;;17.41;100.00;100496.94;6159167;23;20061;-79
2023/07/28 02:45:09;;;;;;;22.48;11.32;;;;;;;17.40;100.00;100498.91;6158070;23;20460;-79
2023/07/28 02:47:37;;;;;;;19.38;11.80;;;;;;;17.40;100.00;100504.28;6158676;23;20069;-79
2023/07/28 02:50:04;;;;;;;26.05;11.70;;;;;;;17.40;100.00;100501.59;6157943;23;20121;-79
2023/07/28 02:52:31;;;;;;;20.33;11.25;;;;;;;17.41;100.00;100505.75;6156794;23;20028;-79
2023/07/28 02:54:58;;;;;;;26.73;12.18;;;;;;;17.40;100.00;100504.28;6133561;23;20026;-79
2023/07/28 02:57:25;;;;;;;24.20;12.02;;;;;;;17.40;100.00;100504.28;6157061;23;20029;-79
2023/07/28 02:59:52;;;;;;;24.63;12.90;;;;;;;17.42;100.00;100512.59;6157910;23;20022;-78
2023/07/28 03:02:19;;;;;;;23.38;13.30;;;;;;;17.42;100.00;100517.97;6157095;23;20045;-79
2023/07/28 03:04:45;;;;;;;27.58;12.90;;;;;;;17.43;100.00;100516.75;6157940;23;20069;-79
2023/07/28 03:07:16;;;;;;;25.73;12.70;;;;;;;17.44;100.00;100517.50;6159113;23;20137;-79
2023/07/28 03:09:46;;;;;;;24.13;12.85;;;;;;;17.44;100.00;100514.81;6134193;23;20014;-79
2023/07/28 03:12:13;;;;;;;25.50;12.15;;;;;;;17.44;100.00;100520.91;6157964;23;20424;-79
2023/07/28 03:14:40;;;;;;;23.17;12.93;;;;;;;17.45;100.00;100521.66;6157392;23;20026;-79
2023/07/28 03:17:07;;;;;;;27.50;13.50;;;;;;;17.42;100.00;100517.97;6159412;23;20098;-79
2023/07/28 03:19:33;;;;;;;26.00;12.75;;;;;;;17.43;100.00;100524.09;6157183;23;20439;-80
2023/07/28 03:22:00;;;;;;;23.98;13.07;;;;;;;17.43;100.00;100524.81;6157435;23;20024;-79
2023/07/28 03:24:27;;;;;;;21.50;12.30;;;;;;;17.43;100.00;100532.16;6159055;23;20077;-78
2023/07/28 03:26:54;;;;;;;29.33;13.00;;;;;;;17.44;100.00;100536.31;6157871;23;20508;-78
2023/07/28 03:29:22;;;;;;;26.48;12.57;;;;;;;17.44;100.00;100533.63;6156858;23;20460;-78
2023/07/28 03:31:49;;;;;;;30.58;13.77;;;;;;;17.43;100.00;100535.59;6158091;23;20448;-78
2023/07/28 03:34:17;;;;;;;27.52;12.95;;;;;;;17.44;100.00;100539.00;6159181;23;20029;-78
2023/07/28 03:36:44;;;;;;;27.20;13.82;;;;;;;17.43;100.00;100535.59;6157372;23;20405;-78
2023/07/28 03:39:10;;;;;;;34.17;14.82;;;;;;;17.43;100.00;100535.59;6157790;23;20097;-78
2023/07/28 03:41:37;;;;;;;33.30;14.23;;;;;;;17.44;100.00;100542.44;6156974;23;20406;-78
2023/07/28 03:44:04;;;;;;;25.58;13.40;;;;;;;17.44;100.00;100545.13;6159379;23;20684;-78
2023/07/28 03:46:31;;;;;;;29.38;13.10;;;;;;;17.45;100.00;100545.88;6157419;23;20018;-78
2023/07/28 03:48:58;;;;;;;32.10;14.10;;;;;;;17.45;100.00;100545.88;6133212;23;20507;-78
2023/07/28 03:51:25;;;;;;;32.25;14.40;;;;;;;17.44;100.00;100550.50;6158210;23;20052;-79
2023/07/28 03:53:51;;;;;;;36.20;14.68;;;;;;;17.46;100.00;100547.34;6158137;23;20028;-79
2023/07/28 03:56:18;;;;;;;29.08;14.57;;;;;;;17.45;100.00;100545.88;6132692;23;20018;-78
2023/07/28 03:58:45;;;;;;;34.25;13.90;;;;;;;17.46;100.00;100548.06;6159408;23;20473;-78
2023/07/28 04:01:11;;;;;;;35.92;14.68;;;;;;;17.47;100.00;100541.47;6159553;23;20017;-79
2023/07/28 04:03:38;;;;;;;26.95;13.65;;;;;;;17.49;100.00;100543.66;6158941;23;20022;-79
2023/07/28 04:06:10;;;;;;;34.22;15.35;;;;;;;17.48;100.00;100553.69;6159004;23;20038;-79
2023/07/28 04:08:36;;;;;;;;;;;;;;;17.50;100.00;100545.88;6158728;23;20045;-79
2023/07/28 04:11:03;;;;;;;26.23;13.65;;;;;;;17.51;100.00;100547.31;6159495;23;19928;-79
2023/07/28 04:13:29;;;;;;;32.55;14.35;;;;;;;17.52;100.00;100554.19;6159117;23;20717;-79
2023/07/28 04:15:56;;;;;;;24.55;13.38;;;;;;;17.51;100.00;100555.41;6159858;23;20014;-79
2023/07/28 04:18:23;;;;;;;30.17;15.05;;;;;;;17.52;100.00;100553.44;6156909;23;20061;-79
2023/07/28 04:20:49;;;;;;;29.13;14.55;;;;;;;17.53;100.00;100539.50;6158814;23;20014;-79
2023/07/28 04:23:16;;;;;;;37.47;16.02;;;;;;;17.52;100.00;100543.41;6133250;23;20423;-79
2023/07/28 04:25:43;;;;;;;30.75;14.65;;;;;;;17.53;100.00;100544.16;6157354;23;20423;-79
2023/07/28 04:28:10;;;;;;;29.23;15.05;;;;;;;17.55;100.00;100547.09;6157565;23;20077;-79
2023/07/28 04:30:36;;;;;;;38.38;14.07;;;;;;;17.55;100.00;100547.81;6156629;23;20350;-79
2023/07/28 04:33:03;;;;;;;31.27;14.52;;;;;;;17.55;100.00;100555.88;6157530;23;20026;-79
2023/07/28 04:35:35;;;;;;;32.40;14.90;;;;;;;17.56;100.00;100556.63;6132586;23;20018;-78
2023/07/28 04:38:14;;;;;;;28.42;14.05;;;;;;;17.54;100.00;100559.06;6157604;23;20028;-78
2023/07/28 04:40:54;;;;;;;39.75;15.43;;;;;;;17.55;100.00;100557.84;6157702;23;20018;-78
2023/07/28 04:43:40;;;;;;;41.78;15.15;;;;;;;17.55;100.00;100560.53;6156731;23;20065;-78
2023/07/28 04:46:07;;;;;;;33.00;14.05;;;;;;;17.55;100.00;100560.53;6159465;23;20439;-78
2023/07/28 04:48:34;;;;;;;30.90;14.23;;;;;;;17.55;100.00;100563.97;6155974;23;20014;-79
2023/07/28 04:51:08;;;;;;;30.73;14.25;;;;;;;17.55;100.00;100555.16;6159337;23;20017;-78
2023/07/28 04:54:06;;;;;;;41.20;15.07;;;;;;;17.56;100.00;100562.00;6158802;23;20030;-79
2023/07/28 04:56:33;;;;;;;39.40;15.00;;;;;;;17.56;100.00;100567.38;6156873;23;20018;-78
2023/07/28 04:59:00;;;;;;;34.33;15.50;;;;;;;17.56;100.00;100567.38;6159213;23;20077;-78
2023/07/28 05:01:27;;;;;;;33.75;15.20;;;;;;;17.56;100.00;100567.38;6156864;23;20042;-78
2023/07/28 05:03:54;;;;;;;30.70;15.65;;;;;;;17.56;100.00;100573.50;6156914;23;20022;-78
2023/07/28 05:06:24;;;;;;;36.90;15.18;;;;;;;17.58;100.00;100575.69;6156437;23;20025;-79
2023/07/28 05:08:51;;;;;;;40.40;14.75;;;;;;;17.58;100.00;100570.31;6159087;23;20045;-79
2023/07/28 05:11:24;;;;;;;36.80;15.38;;;;;;;17.58;100.00;100576.44;6156267;23;20014;-79
2023/07/28 05:13:50;;;;;;;34.53;14.95;;;;;;;17.60;100.00;100565.16;6157113;23;20061;-79
2023/07/28 05:16:17;;;;;;;35.15;15.13;;;;;;;17.63;100.00;100569.56;6157606;23;20474;-79
2023/07/28 05:19:16;;;;;;;36.08;14.27;;;;;;;17.64;100.00;100565.63;6125855;23;20026;-78
2023/07/28 05:22:01;;;;;;;38.92;14.18;;;;;;;17.65;100.00;100575.22;6126666;23;20042;-78
2023/07/28 05:24:45;;;;;;;34.58;13.75;;;;;;;17.65;100.00;100572.53;6101960;23;20054;-78
2023/07/28 05:27:13;;;;;;;28.15;13.82;;;;;;;17.66;100.00;100569.34;6126248;23;20018;-78
2023/07/28 05:29:42;;;;;;;31.95;14.02;;;;;;;17.69;100.00;100569.56;6125603;23;20029;-79
2023/07/28 05:32:09;;;;;;;29.50;14.13;;;;;;;17.73;100.00;100568.09;6101243;23;20018;-79
2023/07/28 05:35:08;;;;;;;26.85;13.20;;;;;;;17.77;100.00;100565.91;6103945;23;20050;-78
2023/07/28 05:37:35;;;;;;;26.90;13.13;;;;;;;17.76;100.00;100564.44;6125773;23;20022;-79
2023/07/28 05:40:02;;;;;;;25.33;13.90;;;;;;;17.77;100.00;100570.53;6101951;23;20520;-78
2023/07/28 05:42:31;;;;;;;26.42;13.20;;;;;;;17.78;100.00;100569.31;6100698;23;20023;-79
2023/07/28 05:44:59;;;;;;;35.90;14.45;;;;;;;17.79;100.00;100566.13;6101857;23;20041;-78
2023/07/28 05:47:26;;;;;;;25.98;13.27;;;;;;;17.85;100.00;100574.19;6100833;23;20023;-78
2023/07/28 05:49:55;;;;;;;26.88;13.90;;;;;;;17.88;100.00;100582.03;6101838;23;20022;-79
2023/07/28 05:52:22;;;;;;;27.38;12.95;;;;;;;17.93;100.00;100588.63;6125310;23;20182;-79
2023/07/28 05:54:49;;;;;;;27.10;12.48;;;;;;;17.94;100.00;100585.44;6140073;23;20022;-79
2023/07/28 05:57:16;;;;;;;23.52;12.30;;;;;;;17.97;100.00;100594.50;6158803;23;20467;-78
2023/07/28 05:59:43;;;;;;;22.27;12.15;;;;;;;17.98;100.00;100593.28;6158286;23;20054;-78
2023/07/28 06:02:09;;;;;;;22.50;12.63;;;;;;;17.99;100.00;100595.44;6158011;23;20045;-78
2023/07/28 06:04:47;;;;;;;26.67;12.48;;;;;;;18.01;100.00;100597.66;6156793;23;20121;-78
2023/07/28 06:07:14;;;;;;;26.13;13.07;;;;;;;18.02;100.00;100601.06;6156833;23;20021;-79
2023/07/28 06:09:41;;;;;;;24.90;12.80;;;;;;;18.03;100.00;100603.28;6155893;23;20028;-82
2023/07/28 06:12:08;;;;;;;22.95;12.45;;;;;;;18.02;100.00;100599.13;6158321;23;20018;-79
2023/07/28 06:14:34;;;;;;;22.33;12.55;;;;;;;18.07;100.00;100598.38;6155541;23;20053;-79
2023/07/28 06:17:03;;;;;;;22.92;12.60;;;;;;;18.13;100.00;100603.75;6155930;23;20018;-78
2023/07/28 06:19:32;;;;;;;19.15;12.13;;;;;;;18.18;100.00;100605.69;6155973;23;20018;-79
2023/07/28 06:22:00;;;;;;;22.83;11.77;;;;;;;18.24;100.00;100606.41;6157687;23;20022;-79
2023/07/28 06:24:27;;;;;;;21.48;12.82;;;;;;;18.33;100.00;100595.34;6157163;23;20026;-79
2023/07/28 06:26:56;;;;;;;23.77;12.68;;;;;;;18.43;100.00;100603.88;6157780;23;20100;-80
2023/07/28 06:29:23;;;;;;;20.50;11.75;;;;;;;18.47;100.00;100612.44;6166779;23;20024;-79
2023/07/28 06:31:49;;;;;;;20.17;11.85;;;;;;;18.48;100.00;100613.88;6162677;23;20025;-79
2023/07/28 06:34:16;;;;;;;17.30;11.05;;;;;;;18.50;100.00;100622.22;6189725;23;20053;-79
2023/07/28 06:36:43;;;;;;;19.23;11.45;;;;;;;18.49;100.00;100618.78;6189827;23;20072;-79
2023/07/28 06:39:10;;;;;;;20.73;11.82;;;;;;;18.49;100.00;100618.06;6189579;23;20017;-78
2023/07/28 06:41:36;;;;;;;16.83;11.93;;;;;;;18.46;100.00;100627.13;6162122;23;20351;-80
2023/07/28 06:44:08;;;;;;;17.08;10.75;;;;;;;18.46;100.00;100635.94;6163268;23;20407;-80
2023/07/28 06:46:35;;;;;;;19.92;11.27;;;;;;;18.46;100.00;100638.66;6188515;23;20009;-80
2023/07/28 06:49:01;;;;;;;24.25;12.38;;;;;;;18.47;100.00;100644.78;6189827;23;20077;-85
2023/07/28 06:51:28;;;;;;;21.42;11.65;;;;;;;18.46;100.00;100646.72;6162085;23;20049;-78
2023/07/28 06:53:54;;;;;;;18.33;12.23;;;;;;;18.48;100.00;100651.63;6163164;23;20018;-78
2023/07/28 06:56:22;;;;;;;23.05;11.90;;;;;;;18.46;100.00;100648.69;6188973;23;20041;-77
2023/07/28 06:58:50;;;;;;;20.90;12.05;;;;;;;18.45;100.00;100658.00;6162854;23;20022;-78
2023/07/28 07:01:30;;;;;;;16.67;11.85;;;;;;;18.46;100.00;100651.38;6189078;23;20017;-78
2023/07/28 07:03:58;;;;;;;26.42;12.20;;;;;;;18.47;100.00;100663.63;6189664;23;20024;-78
2023/07/28 07:06:24;;;;;;;18.10;12.85;;;;;;;18.48;100.00;100657.75;6189100;23;20018;-78
2023/07/28 07:08:51;;;;;;;16.17;12.07;;;;;;;18.49;100.00;100663.88;6189749;23;20068;-79
2023/07/28 07:11:18;;;;;;;20.80;12.13;;;;;;;18.52;100.00;100660.19;6189281;23;20014;-79
2023/07/28 07:13:44;;;;;;;14.07;12.15;;;;;;;18.57;100.00;100659.44;6189036;23;20029;-78
2023/07/28 07:16:17;;;;;;;19.58;12.73;;;;;;;18.61;100.00;100660.69;6162988;23;20073;-78
2023/07/28 07:18:53;;;;;;;21.50;12.27;;;;;;;18.62;100.00;100661.41;6163197;23;20437;-78
2023/07/28 07:21:19;;;;;;;22.42;12.98;;;;;;;18.61;100.00;100662.63;6188909;23;20039;-79
2023/07/28 07:23:46;;;;;;;22.88;13.55;;;;;;;18.62;100.00;100674.88;6163229;23;20100;-77
2023/07/28 07:26:24;;;;;;;20.92;12.52;;;;;;;18.62;100.00;100670.22;6188947;23;20041;-77
2023/07/28 07:28:51;;;;;;;19.45;13.95;;;;;;;18.63;100.00;100669.00;6188850;23;20017;-80
2023/07/28 07:31:17;;;;;;;19.73;12.35;;;;;;;18.66;100.00;100672.66;6189390;23;20072;-76
2023/07/28 07:33:44;;;;;;;20.27;12.70;;;;;;;18.70;100.00;100678.53;6163108;23;20028;-76
2023/07/28 07:36:18;;;;;;;19.95;12.07;;;;;;;18.72;100.00;100670.69;6189520;23;20013;-77
2023/07/28 07:38:46;;;;;;;22.52;12.07;;;;;;;18.71;100.00;100682.69;6189358;23;20017;-79
2023/07/28 07:41:19;;;;;;;20.95;12.07;;;;;;;18.72;100.00;100680.75;6189515;23;20085;-79
2023/07/28 07:43:47;;;;;;;22.65;11.88;;;;;;;18.73;100.00;100691.03;6162425;23;20026;-81
2023/07/28 07:46:15;;;;;;;19.20;11.38;;;;;;;18.75;100.00;100693.97;6189585;23;20037;-80
2023/07/28 07:48:42;;;;;;;15.43;11.02;;;;;;;18.79;100.00;100696.41;6162270;23;20014;-79
2023/07/28 07:51:08;;;;;;;18.05;10.50;;;;;;;18.83;100.00;100699.53;6189379;23;20120;-78
2023/07/28 07:53:38;;;;;;;14.40;10.07;;;;;;;18.88;100.00;100702.22;6188623;23;20018;-79
2023/07/28 07:56:05;;;;;;;12.55;9.50;;;;;;;18.91;100.00;100701.22;6162296;23;20013;-77
2023/07/28 07:58:32;;;;;;;19.38;9.52;;;;;;;19.03;100.00;100695.78;6188024;23;20017;-80
2023/07/28 08:00:59;;;;;;;18.33;9.45;;;;;;;19.09;100.00;100701.88;6189480;23;20543;-78
2023/07/28 08:03:27;;;;;;;13.18;8.57;;;;;;;19.15;100.00;100699.88;6188928;23;20093;-78
2023/07/28 08:05:54;;;;;;;12.20;9.07;;;;;;;19.19;100.00;100708.44;6189215;23;20388;-78
2023/07/28 08:08:21;;;;;;;10.98;8.48;;;;;;;19.27;100.00;100715.50;6188695;23;20392;-78
2023/07/28 08:10:48;;;;;;;11.90;7.95;;;;;;;19.38;100.00;100712.00;6161465;23;20020;-82
2023/07/28 08:13:15;;;;;;;12.30;8.68;;;;;;;19.45;100.00;100711.47;6162345;23;20090;-78
2023/07/28 08:15:45;;;;;;;14.00;8.35;;;;;;;19.58;100.00;100714.34;6161424;23;20373;-78
2023/07/28 08:18:13;;;;;;;12.52;8.07;;;;;;;19.67;100.00;100723.34;6188338;23;20400;-78
2023/07/28 08:20:40;;;;;;;11.90;7.78;;;;;;;19.79;100.00;100716.63;6162086;23;20017;-79
2023/07/28 08:23:06;;;;;;;12.32;7.63;;;;;;;19.97;100.00;100716.72;6189136;23;20021;-80
2023/07/28 08:25:34;;;;;;;9.13;7.28;;;;;;;20.16;100.00;100716.06;6187957;23;20014;-79
2023/07/28 08:28:01;;;;;;;11.32;6.15;;;;;;;20.29;100.00;100719.59;6188181;23;20084;-79
2023/07/28 08:30:27;;;;;;;14.10;5.90;;;;;;;20.53;100.00;100718.88;6187520;23;20017;-79
2023/07/28 08:32:54;;;;;;;6.03;4.97;;;;;;;20.72;100.00;100729.72;6189505;23;20037;-80
2023/07/28 08:35:21;;;;;;;10.52;5.38;;;;;;;20.87;100.00;100724.59;6188538;23;20018;-80
2023/07/28 08:37:47;;;;;;;8.55;5.05;;;;;;;20.89;99.38;100727.53;6188917;23;20096;-79
2023/07/28 08:40:14;;;;;;;10.85;4.65;;;;;;;20.83;97.33;100732.28;6162635;23;20018;-80
2023/07/28 08:42:41;;;;;;;9.80;4.80;;;;;;;20.82;100.00;100732.78;6187722;23;20028;-78
2023/07/28 08:45:08;;;;;;;9.45;4.32;;;;;;;20.78;99.63;100741.22;6188419;23;20466;-79
2023/07/28 08:47:36;;;;;;;13.25;5.03;;;;;;;20.74;98.96;100729.22;6188427;23;20455;-80
2023/07/28 08:50:05;;;;;;;8.38;4.43;;;;;;;20.78;98.57;100733.09;6189296;23;20013;-80
2023/07/28 08:52:32;;;;;;;6.70;4.15;;;;;;;20.79;98.27;100731.88;6188247;23;20031;-80
2023/07/28 08:54:59;;;;;;;8.68;4.20;;;;;;;20.83;98.28;100739.66;6188693;23;20017;-79
2023/07/28 08:57:27;;;;;;;8.32;4.07;;;;;;;20.91;97.82;100733.16;6188194;23;20013;-80
2023/07/28 08:59:54;;;;;;;13.35;4.30;;;;;;;20.90;98.17;100729.00;6188845;23;20022;-75
2023/07/28 09:02:21;;;;;;;8.13;4.68;;;;;;;20.88;97.70;100742.31;6188040;23;20025;-82
2023/07/28 09:04:49;;;;;;;7.68;3.33;;;;;;;20.84;97.30;100741.84;6162903;23;20017;-81
2023/07/28 09:07:15;;;;;;;10.43;4.00;;;;;;;20.87;97.15;100737.41;6189066;23;20018;-82
2023/07/28 09:09:43;;;;;;;7.47;3.63;;;;;;;20.90;97.11;100745.22;6161591;23;20477;-81
2023/07/28 09:12:09;;;;;;;7.15;3.50;;;;;;;21.00;97.73;100742.91;6162275;23;20471;-84
2023/07/28 09:14:37;;;;;;;6.05;3.65;;;;;;;21.01;95.89;100749.03;6188089;23;20455;-80
2023/07/28 09:17:16;;;;;;;5.70;3.50;;;;;;;20.95;95.12;100741.72;6188872;23;20355;-82
2023/07/28 09:19:51;;;;;;;5.93;3.38;;;;;;;21.07;95.65;100747.00;6188843;23;20018;-81
2023/07/28 09:22:20;;;;;;;7.28;3.47;;;;;;;21.29;93.68;100747.44;6188238;23;20077;-82
2023/07/28 09:24:47;;;;;;;3.60;2.97;;;;;;;21.85;92.43;100740.47;6188138;23;20427;-82
2023/07/28 09:27:26;;;;;;;8.95;3.25;;;;;;;22.31;89.43;100743.88;6188343;23;20018;-81
2023/07/28 09:29:57;;;;;;;6.78;4.05;;;;;;;22.36;87.93;100743.78;6188359;23;20014;-81
2023/07/28 09:32:37;;;;;;;7.05;3.47;;;;;;;22.45;85.49;100751.47;6161268;23;20069;-80
2023/07/28 09:35:12;;;;;;;6.47;3.17;;;;;;;22.45;85.14;100748.78;6188309;23;20423;-79
2023/07/28 09:37:45;;;;;;;4.40;2.97;;;;;;;22.55;85.10;100754.50;6187894;23;20041;-81
2023/07/28 09:40:13;;;;;;;3.45;2.90;;;;;;;22.55;84.42;100749.81;6188155;23;20144;-79
2023/07/28 09:42:42;;;;;;;3.78;2.85;;;;;;;22.48;85.47;100755.13;6187983;23;20518;-80
2023/07/28 09:45:10;;;;;;;5.68;2.90;;;;;;;22.57;84.80;100752.00;6162321;23;20025;-79
2023/07/28 09:47:58;;;;;;;6.00;3.03;;;;;;;22.64;84.93;100754.09;6188662;23;20545;-81
2023/07/28 09:50:27;;;;;;;6.03;3.15;;;;;;;22.71;82.25;100761.59;6160899;23;20025;-79
2023/07/28 09:53:01;;;;;;;6.95;3.22;;;;;;;22.74;83.19;100757.13;6188162;23;20025;-81
2023/07/28 09:55:28;;;;;;;9.82;3.60;;;;;;;23.03;81.32;100752.59;6188212;23;20048;-79
2023/07/28 09:57:59;;;;;;;9.15;3.50;;;;;;;23.23;82.96;100757.31;6189970;23;20036;-80
2023/07/28 10:00:26;;;;;;;8.18;3.78;;;;;;;23.60;80.93;100751.56;6162332;23;20414;-75
2023/07/28 10:02:53;;;;;;;4.57;3.13;;;;;;;23.89;79.50;100757.78;6190007;23;20055;-78
2023/07/28 10:05:20;;;;;;;3.38;2.90;;;;;;;23.66;77.59;100753.41;6162250;23;20443;-78
2023/07/28 10:07:48;;;;;;;4.88;3.45;;;;;;;23.64;78.48;100756.66;6162813;23;20021;-75
2023/07/28 10:10:17;;;;;;;7.55;3.60;;;;;;;23.91;76.22;100752.56;6189091;23;20068;-76
2023/07/28 10:12:49;;;;;;;5.13;3.53;;;;;;;24.05;77.24;100750.47;6189254;23;20022;-76
2023/07/28 10:15:20;;;;;;;5.63;3.17;;;;;;;24.35;76.85;100755.41;6189712;23;20073;-75
2023/07/28 10:17:54;;;;;;;4.45;3.33;;;;;;;24.32;72.49;100755.75;6189718;23;20447;-77
2023/07/28 10:20:38;;;;;;;7.03;3.75;;;;;;;24.06;72.40;100753.91;6188869;23;20049;-76
2023/07/28 10:23:07;;;;;;;5.63;3.30;;;;;;;24.07;72.90;100752.66;6188872;23;20024;-77
2023/07/28 10:25:36;;;;;;;3.40;3.10;;;;;;;24.25;72.96;100747.00;6161773;23;20023;-77
2023/07/28 10:28:04;;;;;;;8.38;3.67;;;;;;;24.27;72.77;100763.53;6162672;23;20060;-78
2023/07/28 10:30:37;;;;;;;3.50;3.05;;;;;;;24.42;72.40;100762.88;6188210;23;20013;-78
2023/07/28 10:33:04;;;;;;;3.22;2.92;;;;;;;24.80;71.10;100759.59;6189629;23;20076;-76
2023/07/28 10:35:32;;;;;;;3.58;3.15;;;;;;;24.88;71.46;100755.66;6188727;23;20044;-76
2023/07/28 10:38:29;;;;;;;3.50;3.20;;;;;;;24.60;72.30;100758.44;6188984;23;20020;-76
2023/07/28 10:41:17;;;;;;;3.72;3.42;;;;;;;24.87;73.87;100759.63;6189756;23;20376;-76
2023/07/28 10:43:45;;;;;;;7.88;3.35;;;;;;;25.05;68.81;100755.19;6162844;23;20056;-77
2023/07/28 10:46:16;;;;;;;4.05;3.25;;;;;;;25.64;69.83;100752.41;6189810;23;20037;-78
2023/07/28 10:48:46;;;;;;;4.30;3.90;;;;;;;25.89;62.93;100756.03;6162857;23;20510;-77
2023/07/28 10:51:21;;;;;;;4.20;3.22;;;;;;;25.45;65.20;100760.91;6189032;23;20013;-76
2023/07/28 10:53:57;;;;;;;3.40;3.10;;;;;;;25.10;66.38;100759.75;6189445;23;20084;-75
2023/07/28 10:56:25;;;;;;;3.95;3.55;;;;;;;25.27;67.75;100762.69;6188609;23;20325;-75
2023/07/28 10:58:59;;;;;;;4.05;3.50;;;;;;;25.62;66.91;100757.63;6189541;23;20414;-75
2023/07/28 11:01:37;;;;;;;3.83;3.42;;;;;;;25.83;66.27;100765.66;6188386;23;20018;-75
2023/07/28 11:04:12;;;;;;;5.43;3.20;;;;;;;25.80;67.38;100761.31;6189805;23;20043;-76
2023/07/28 11:06:42;;;;;;;4.05;3.40;;;;;;;26.11;67.31;100764.72;6188459;23;20020;-76
2023/07/28 11:09:10;;;;;;;5.97;4.10;;;;;;;25.83;66.25;100768.41;6189457;23;20014;-76
2023/07/28 11:11:38;;;;;;;5.72;3.92;;;;;;;25.68;65.75;100774.56;6188580;23;20026;-76
2023/07/28 11:14:06;;;;;;;7.70;4.10;;;;;;;25.77;67.44;100770.56;6189255;23;20029;-76
2023/07/28 11:16:41;;;;;;;4.75;3.90;;;;;;;26.25;68.15;100777.63;6162262;23;20037;-76